Shelton, Washington
Current Conditions -  °F | °C
As of 3:20 AM on Thursday 27 Nov 2014 (Local Time) from KSHN Reporting Station
Moderate Rain Moderate Rain  
Wind Chill: 52°   Ceiling: 400
Heat Index: 52°   Visibility: 3mi
Dew Point: 51°   Wind: 7mph
Humidity: 97%   Direction: 130°SE
Pressure: 29.85"   Gusts: NA
Location:  47.21°N, 123.1°W
Report Text: KSHN 271120Z AUTO 13006KT 3SM RA BR OVC004 11/11 A2985 RMK AO2 P0008 T01110106
Loading
Personal Weather Stations






























Interactive Weather Map New forecast layout! Learn more

10-Day Weather Forecast

Advertisements
Track Severe Weather on mobile